»·PEaware :: SWA3156 KTUS-KLAX

SWA3156 :: KTUS-KLAX

FLIGHT INFORMATION

Flight Status: Arrived
Operator:
Southwest Airlines
More flights by this operator :: More flights under this callsign
Pilot: Daniel W. (24238)
Aircraft: BOEING 737-700
(B737)
More flights by this aircraft type
Origin: KTUS Tucson Intl
United States
Destination: KLAX Los Angeles Intl
United States
More flights between these airports :: More routes between these airports
Route: BURRO4 GBN J104 MESSI ESTWD HLYWD1
File this flight plan on PilotEdge
Remarks: PBN / A1D1O1S2T1 NAV / RNVD1E1A1 RNP10 DAT / 1FANSE2PDC REG / N943WN EET / KZLA0031 CODE / AD1A4E
Altitude:
(Current/Filed)
38,000ft
Speed:
(Current/Filed)
456kts
Departed: 06-Oct-23 05:49 PM
Arrived: 06-Oct-23 06:55 PM
Distance/Time
Traveled:
391nm/1:06
Distance/Time
To Go:
Arrived

Flight Plot

Page will automatically refresh every two minutes.

Flight plan parsing failed; only flown route is shown


Map Options




Map Legend


Flown Route
Filed Route
Departure Airport
Arrival Airport
Navaid (VOR, NDB)
Fix

Horizontal Profiles

Position Reports

Time Latitude Longitude Heading Altitude Ground
Speed
06-Oct-23 17:17 32.118811 -110.937649 61 2592ft 0kts
06-Oct-23 17:18 32.118811 -110.937649 61 2592ft 0kts
06-Oct-23 17:19 32.118811 -110.937649 61 2592ft 0kts
06-Oct-23 17:20 32.118811 -110.937649 61 2592ft 0kts
06-Oct-23 17:21 32.118811 -110.937649 61 2592ft 0kts
06-Oct-23 17:22 32.118811 -110.937649 61 2592ft 0kts
06-Oct-23 17:23 32.118811 -110.937649 61 2592ft 0kts
06-Oct-23 17:24 32.118811 -110.937649 61 2592ft 0kts
06-Oct-23 17:25 32.118811 -110.937649 61 2592ft 0kts
06-Oct-23 17:26 32.118811 -110.937649 61 2592ft 0kts
06-Oct-23 17:27 32.118811 -110.937649 61 2592ft 0kts
06-Oct-23 17:28 32.118811 -110.937649 61 2592ft 0kts
06-Oct-23 17:29 32.118811 -110.937649 61 2592ft 0kts
06-Oct-23 17:30 32.118811 -110.937649 61 2592ft 0kts
06-Oct-23 17:31 32.118811 -110.937649 61 2592ft 0kts
06-Oct-23 17:32 32.118811 -110.937649 61 2592ft 0kts
06-Oct-23 17:33 32.118811 -110.937649 61 2592ft 0kts
06-Oct-23 17:34 32.118811 -110.937649 61 2592ft 0kts
06-Oct-23 17:35 32.118811 -110.937649 61 2592ft 0kts
06-Oct-23 17:36 32.118811 -110.937649 61 2592ft 0kts
06-Oct-23 17:37 32.118811 -110.937649 61 2592ft 0kts
06-Oct-23 17:38 32.118811 -110.937649 61 2592ft 0kts
06-Oct-23 17:39 32.118811 -110.937649 61 2592ft 0kts
06-Oct-23 17:40 32.118676 -110.937947 61 2585ft 3kts
06-Oct-23 17:41 32.118535 -110.938363 92 2582ft 0kts
06-Oct-23 17:42 32.118535 -110.938363 92 2582ft 0kts
06-Oct-23 17:43 32.118535 -110.938363 92 2582ft 0kts
06-Oct-23 17:44 32.117827 -110.937759 171 2589ft 5kts
06-Oct-23 17:45 32.118733 -110.940027 315 2589ft 17kts
06-Oct-23 17:46 32.122759 -110.944753 315 2577ft 20kts
06-Oct-23 17:47 32.122742 -110.947223 134 2571ft 12kts
06-Oct-23 17:48 32.102445 -110.923569 133 3303ft 173kts
06-Oct-23 17:49 32.060203 -110.874173 147 4546ft 252kts
06-Oct-23 17:50 31.998913 -110.903546 225 7281ft 275kts
06-Oct-23 17:51 31.976125 -110.985789 293 10342ft 301kts
06-Oct-23 17:52 32.023161 -111.082180 299 12160ft 373kts
06-Oct-23 17:53 32.075824 -111.190234 300 15302ft 382kts
06-Oct-23 17:54 32.146579 -111.285910 311 16973ft 392kts
06-Oct-23 17:55 32.220636 -111.381601 310 18418ft 396kts
06-Oct-23 17:56 32.294679 -111.481053 304 20713ft 410kts
06-Oct-23 17:57 32.358306 -111.595870 300 22973ft 424kts
06-Oct-23 17:58 32.423863 -111.714024 301 24895ft 435kts
06-Oct-23 17:59 32.491463 -111.834598 301 26633ft 445kts
06-Oct-23 18:01 32.560596 -111.958306 301 28182ft 456kts
06-Oct-23 18:02 32.631365 -112.085389 301 29557ft 466kts
06-Oct-23 18:03 32.702375 -112.213309 301 31309ft 460kts
06-Oct-23 18:04 32.772287 -112.339712 301 33067ft 454kts
06-Oct-23 18:05 32.841012 -112.464395 301 34574ft 448kts
06-Oct-23 18:06 32.908822 -112.587845 300 35893ft 443kts
06-Oct-23 18:07 32.978544 -112.707392 308 37085ft 441kts
06-Oct-23 18:08 33.061887 -112.814334 309 37845ft 443kts
06-Oct-23 18:09 33.144268 -112.922527 309 37849ft 436kts
06-Oct-23 18:10 33.225084 -113.029887 309 37853ft 433kts
06-Oct-23 18:11 33.305270 -113.136672 309 37861ft 434kts
06-Oct-23 18:12 33.386299 -113.244896 309 37875ft 439kts
06-Oct-23 18:13 33.468140 -113.354524 309 37883ft 444kts
06-Oct-23 18:14 33.550311 -113.465414 309 37885ft 446kts
06-Oct-23 18:15 33.632774 -113.576735 310 37894ft 446kts
06-Oct-23 18:16 33.715042 -113.687820 310 37896ft 445kts
06-Oct-23 18:17 33.795499 -113.800139 302 37885ft 443kts
06-Oct-23 18:18 33.844853 -113.934632 291 37894ft 441kts
06-Oct-23 18:19 33.890816 -114.071801 291 37881ft 442kts
06-Oct-23 18:20 33.923792 -114.213724 280 37878ft 443kts
06-Oct-23 18:21 33.946825 -114.359742 281 37880ft 444kts
06-Oct-23 18:22 33.971345 -114.505869 281 37878ft 445kts
06-Oct-23 18:23 33.995779 -114.652025 281 37882ft 446kts
06-Oct-23 18:24 34.020087 -114.798711 281 37888ft 446kts
06-Oct-23 18:25 34.044199 -114.945344 281 37903ft 445kts
06-Oct-23 18:26 34.068115 -115.091818 281 37899ft 446kts
06-Oct-23 18:27 34.091924 -115.238662 281 37909ft 446kts
06-Oct-23 18:28 34.115510 -115.385287 281 37915ft 446kts
06-Oct-23 18:28 34.135072 -115.507803 281 37914ft 446kts
06-Oct-23 18:29 34.158415 -115.655027 281 37924ft 446kts
06-Oct-23 18:31 34.150785 -115.828451 263 37964ft 447kts
06-Oct-23 18:32 34.135966 -115.977307 264 38015ft 448kts
06-Oct-23 18:33 34.121214 -116.127756 263 35567ft 452kts
06-Oct-23 18:33 34.108652 -116.254564 263 32775ft 461kts
06-Oct-23 18:34 34.092779 -116.406808 262 30326ft 456kts
06-Oct-23 18:35 34.076401 -116.558392 262 27915ft 449kts
06-Oct-23 18:37 34.060088 -116.728357 263 25413ft 425kts
06-Oct-23 18:38 34.049139 -116.846172 263 23673ft 414kts
06-Oct-23 18:38 34.036293 -116.959148 260 21825ft 400kts
06-Oct-23 18:39 34.019653 -117.088813 261 19863ft 385kts
06-Oct-23 18:40 34.004760 -117.215575 261 17897ft 378kts
06-Oct-23 18:41 33.989942 -117.339490 261 15965ft 369kts
06-Oct-23 18:42 33.975791 -117.459927 261 14189ft 358kts
06-Oct-23 18:43 33.991584 -117.573516 286 12426ft 339kts
06-Oct-23 18:44 34.016625 -117.681527 285 10759ft 329kts
06-Oct-23 18:45 34.011676 -117.786543 262 9857ft 293kts
06-Oct-23 18:46 34.002236 -117.881871 263 8521ft 283kts
06-Oct-23 18:47 33.993123 -117.974799 263 7013ft 276kts
06-Oct-23 18:48 33.985105 -118.066424 263 5316ft 274kts
06-Oct-23 18:49 33.975670 -118.155912 263 3935ft 258kts
06-Oct-23 18:50 33.967277 -118.236317 263 2723ft 222kts
06-Oct-23 18:51 33.960235 -118.304163 263 1685ft 184kts
06-Oct-23 18:52 33.954814 -118.356086 262 874ft 138kts
06-Oct-23 18:53 33.950211 -118.401613 262 128ft 132kts
06-Oct-23 18:54 33.947565 -118.422169 234 102ft 21kts
06-Oct-23 18:55 33.947054 -118.420174 82 97ft 17kts
06-Oct-23 18:56 33.947911 -118.412987 83 97ft 21kts
06-Oct-23 18:57 33.948611 -118.406172 82 99ft 19kts
06-Oct-23 18:58 33.947632 -118.402126 110 97ft 4kts
06-Oct-23 18:59 33.947560 -118.401910 111 96ft 0kts
06-Oct-23 19:00 33.947560 -118.401910 111 96ft 0kts
06-Oct-23 19:01 33.947560 -118.401910 111 96ft 0kts

Navigation Log

Ident Type
Flight plan parsing failed, navigation log unavailable